createdAt,value
2018-04-15T00:02:12.136Z,10.60
2018-04-15T00:04:40.388Z,10.50
2018-04-15T00:07:07.878Z,10.40
2018-04-15T00:09:35.381Z,10.50
2018-04-15T00:12:02.891Z,10.50
2018-04-15T00:14:30.366Z,10.60
2018-04-15T00:16:57.845Z,10.70
2018-04-15T00:19:25.329Z,10.70
2018-04-15T00:21:52.795Z,10.70
2018-04-15T00:24:20.275Z,10.70
2018-04-15T00:26:48.493Z,10.50
2018-04-15T00:29:15.987Z,10.60
2018-04-15T00:31:43.471Z,10.60
2018-04-15T00:34:10.953Z,10.50
2018-04-15T00:36:38.461Z,10.50
2018-04-15T00:39:05.981Z,10.50
2018-04-15T00:41:33.425Z,10.50
2018-04-15T00:44:00.902Z,10.50
2018-04-15T00:46:28.344Z,10.50
2018-04-15T00:48:55.840Z,10.60
2018-04-15T00:51:23.349Z,10.60
2018-04-15T00:54:02.756Z,10.60
2018-04-15T00:56:30.979Z,10.50
2018-04-15T00:58:58.435Z,10.50
2018-04-15T01:01:25.932Z,10.60
2018-04-15T01:03:53.425Z,10.60
2018-04-15T01:06:20.909Z,10.60
2018-04-15T01:08:48.406Z,10.60
2018-04-15T01:11:15.868Z,10.60
2018-04-15T01:13:43.333Z,10.60
2018-04-15T01:16:11.588Z,10.70
2018-04-15T01:18:39.065Z,10.70
2018-04-15T01:21:06.539Z,10.70
2018-04-15T01:23:34.009Z,10.70
2018-04-15T01:26:01.497Z,10.70
2018-04-15T01:28:28.951Z,10.70
2018-04-15T01:30:56.441Z,10.80
2018-04-15T01:33:23.907Z,10.80
2018-04-15T01:35:51.374Z,10.80
2018-04-15T01:38:19.623Z,10.80
2018-04-15T01:40:47.085Z,10.80
2018-04-15T01:43:14.565Z,10.70
2018-04-15T01:45:42.813Z,10.80
2018-04-15T01:48:10.284Z,10.70
2018-04-15T01:50:37.762Z,10.60
2018-04-15T01:53:05.990Z,10.80
2018-04-15T01:55:33.462Z,10.80
2018-04-15T01:58:00.940Z,10.80
2018-04-15T02:00:29.187Z,10.60
2018-04-15T02:02:56.662Z,10.60
2018-04-15T02:05:24.133Z,10.50
2018-04-15T02:07:51.614Z,10.50
2018-04-15T02:10:19.069Z,10.50
2018-04-15T02:12:46.545Z,10.50
2018-04-15T02:15:14.034Z,10.50
2018-04-15T02:17:41.489Z,10.50
2018-04-15T02:20:08.973Z,10.60
2018-04-15T02:22:37.203Z,10.50
2018-04-15T02:25:04.687Z,10.50
2018-04-15T02:27:33.690Z,10.50
2018-04-15T02:30:01.159Z,10.60
2018-04-15T02:32:28.705Z,10.60
2018-04-15T02:34:56.935Z,10.60
2018-04-15T02:37:24.387Z,10.60
2018-04-15T02:39:52.041Z,10.60
2018-04-15T02:42:19.511Z,10.60
2018-04-15T02:44:47.014Z,10.60
2018-04-15T02:47:14.483Z,10.70
2018-04-15T02:49:42.700Z,10.80
2018-04-15T02:52:10.183Z,10.80
2018-04-15T02:54:37.651Z,10.80
2018-04-15T02:57:05.116Z,10.90
2018-04-15T02:59:32.585Z,10.90
2018-04-15T03:02:00.826Z,10.90
2018-04-15T03:04:28.309Z,10.90
2018-04-15T03:06:56.545Z,10.90
2018-04-15T03:09:24.058Z,10.90
2018-04-15T03:11:52.278Z,11.00
2018-04-15T03:14:19.759Z,10.90
2018-04-15T03:16:47.242Z,10.90
2018-04-15T03:19:15.490Z,10.80
2018-04-15T03:21:42.952Z,10.80
2018-04-15T03:24:10.422Z,10.80
2018-04-15T03:26:37.861Z,10.80
2018-04-15T03:29:05.349Z,11.00
2018-04-15T03:31:33.559Z,10.80
2018-04-15T03:34:01.062Z,10.70
2018-04-15T03:36:28.513Z,10.80
2018-04-15T03:38:55.977Z,10.90
2018-04-15T03:41:23.480Z,10.90
2018-04-15T03:43:50.957Z,11.00
2018-04-15T03:46:18.410Z,10.90
2018-04-15T03:48:46.681Z,10.80
2018-04-15T03:51:14.146Z,10.90
2018-04-15T03:53:41.608Z,10.90
2018-04-15T03:56:09.095Z,10.90
2018-04-15T03:58:36.588Z,10.80
2018-04-15T04:01:04.059Z,10.80
2018-04-15T04:03:31.526Z,10.80
2018-04-15T04:05:59.011Z,10.80
2018-04-15T04:08:26.468Z,10.80
2018-04-15T04:10:53.956Z,10.80
2018-04-15T04:13:22.198Z,10.80
2018-04-15T04:15:49.662Z,10.80
2018-04-15T04:18:28.875Z,10.80
2018-04-15T04:21:08.201Z,10.70
2018-04-15T04:23:47.599Z,10.70
2018-04-15T04:26:15.090Z,10.70
2018-04-15T04:28:42.596Z,10.60
2018-04-15T04:31:10.065Z,10.60
2018-04-15T04:33:38.296Z,10.60
2018-04-15T04:36:05.768Z,10.60
2018-04-15T04:38:33.232Z,10.60
2018-04-15T04:41:00.719Z,10.60
2018-04-15T04:43:28.206Z,10.60
2018-04-15T04:45:55.722Z,10.70
2018-04-15T04:48:24.226Z,10.60
2018-04-15T04:50:51.700Z,10.60
2018-04-15T04:53:19.193Z,10.60
2018-04-15T04:55:46.660Z,10.60
2018-04-15T04:58:14.136Z,10.60
2018-04-15T05:00:41.596Z,10.50
2018-04-15T05:03:09.082Z,10.50
2018-04-15T05:05:36.552Z,10.30
2018-04-15T05:08:04.005Z,10.20
2018-04-15T05:10:31.511Z,10.30
2018-04-15T05:12:58.981Z,10.30
2018-04-15T05:15:27.192Z,10.40
2018-04-15T05:17:54.687Z,10.40
2018-04-15T05:20:22.154Z,10.30
2018-04-15T05:22:49.627Z,10.40
2018-04-15T05:25:17.869Z,10.30
2018-04-15T05:27:45.333Z,10.30
2018-04-15T05:30:12.822Z,10.30
2018-04-15T05:32:40.301Z,10.20
2018-04-15T05:35:07.779Z,10.20
2018-04-15T05:37:35.289Z,10.20
2018-04-15T05:40:02.711Z,10.20
2018-04-15T05:42:30.195Z,10.20
2018-04-15T05:44:57.682Z,10.20
2018-04-15T05:47:25.176Z,10.10
2018-04-15T05:49:52.640Z,10.20
2018-04-15T05:52:20.113Z,10.20
2018-04-15T05:54:47.601Z,10.20
2018-04-15T05:57:15.082Z,10.20
2018-04-15T05:59:42.586Z,10.40
2018-04-15T06:02:10.066Z,10.30
2018-04-15T06:04:38.334Z,10.20
2018-04-15T06:07:06.589Z,10.20
2018-04-15T06:09:34.063Z,10.10
2018-04-15T06:12:01.563Z,10.10
2018-04-15T06:14:29.047Z,10.10
2018-04-15T06:16:56.546Z,10.20
2018-04-15T06:19:24.024Z,10.40
2018-04-15T06:21:51.482Z,10.50
2018-04-15T06:24:18.963Z,10.60
2018-04-15T06:26:46.434Z,10.60
2018-04-15T06:29:13.926Z,10.70
2018-04-15T06:31:41.405Z,11.00
2018-04-15T06:34:08.882Z,11.20
2018-04-15T06:36:36.373Z,11.60
2018-04-15T06:39:03.836Z,11.90
2018-04-15T06:41:31.323Z,11.80
2018-04-15T06:43:59.562Z,11.50
2018-04-15T06:46:27.020Z,11.50
2018-04-15T06:48:54.488Z,11.40
2018-04-15T06:51:21.965Z,11.30
2018-04-15T06:53:50.255Z,11.10
2018-04-15T06:56:17.720Z,11.20
2018-04-15T06:58:45.195Z,11.10
2018-04-15T07:01:12.692Z,11.20
2018-04-15T07:03:40.191Z,11.30
2018-04-15T07:06:07.734Z,11.40
2018-04-15T07:08:35.232Z,11.40
2018-04-15T07:11:02.693Z,11.40
2018-04-15T07:13:30.270Z,11.40
2018-04-15T07:15:57.795Z,11.40
2018-04-15T07:18:25.347Z,11.60
2018-04-15T07:20:52.863Z,11.60
2018-04-15T07:23:20.353Z,11.80
2018-04-15T07:25:47.865Z,11.90
2018-04-15T07:28:15.359Z,12.00
2018-04-15T07:30:43.627Z,12.40
2018-04-15T07:33:11.847Z,13.50
2018-04-15T07:35:39.340Z,13.50
2018-04-15T07:38:06.820Z,14.70
2018-04-15T07:40:35.099Z,14.70
2018-04-15T07:43:02.562Z,14.70
2018-04-15T07:45:30.808Z,15.00
2018-04-15T07:47:58.301Z,15.00
2018-04-15T07:50:25.949Z,15.80
2018-04-15T07:52:53.445Z,16.50
2018-04-15T07:55:21.008Z,17.00
2018-04-15T07:57:48.483Z,17.60
2018-04-15T08:00:15.971Z,17.60
2018-04-15T08:02:43.492Z,17.70
2018-04-15T08:05:10.970Z,17.50
2018-04-15T08:07:38.464Z,17.40
2018-04-15T08:10:06.731Z,16.60
2018-04-15T08:12:34.221Z,16.60
2018-04-15T08:15:01.703Z,16.20
2018-04-15T08:17:29.640Z,16.00
2018-04-15T08:19:57.265Z,15.80
2018-04-15T08:22:24.790Z,15.70
2018-04-15T08:24:52.274Z,15.40
2018-04-15T08:27:19.754Z,15.00
2018-04-15T08:29:48.023Z,14.90
2018-04-15T08:32:16.277Z,15.60
2018-04-15T08:34:43.777Z,15.60
2018-04-15T08:37:11.296Z,12.40
2018-04-15T08:39:38.801Z,16.10
2018-04-15T08:42:06.293Z,16.00
2018-04-15T08:44:33.788Z,16.00
2018-04-15T08:47:02.032Z,16.40
2018-04-15T08:49:29.518Z,16.40
2018-04-15T08:51:57.023Z,16.30
2018-04-15T08:54:24.528Z,16.00
2018-04-15T08:56:52.027Z,15.80
2018-04-15T08:59:19.537Z,15.90
2018-04-15T09:01:47.042Z,16.00
2018-04-15T09:04:14.709Z,16.00
2018-04-15T09:06:42.212Z,16.30
2018-04-15T09:09:09.725Z,16.30
2018-04-15T09:11:37.983Z,16.30
2018-04-15T09:14:05.469Z,16.30
2018-04-15T09:16:32.968Z,16.60
2018-04-15T09:19:00.700Z,16.80
2018-04-15T09:21:28.183Z,16.60
2018-04-15T09:23:55.690Z,16.30
2018-04-15T09:26:23.167Z,16.20
2018-04-15T09:28:50.657Z,16.00
2018-04-15T09:31:18.119Z,15.80
2018-04-15T09:33:45.618Z,15.70
2018-04-15T09:36:13.101Z,16.10
2018-04-15T09:38:40.572Z,16.70
2018-04-15T09:41:08.074Z,17.20
2018-04-15T09:43:36.317Z,17.40
2018-04-15T09:46:03.795Z,17.20
2018-04-15T09:48:32.076Z,17.80
2018-04-15T09:51:00.331Z,17.60
2018-04-15T09:53:27.826Z,17.50
2018-04-15T09:55:55.300Z,17.30
2018-04-15T09:58:22.791Z,17.50
2018-04-15T10:00:50.307Z,17.50
2018-04-15T10:03:17.813Z,17.30
2018-04-15T10:05:45.297Z,17.00
2018-04-15T10:08:13.561Z,16.50
2018-04-15T10:10:41.070Z,16.40
2018-04-15T10:13:08.628Z,16.70
2018-04-15T10:15:36.115Z,17.00
2018-04-15T10:18:03.651Z,17.20
2018-04-15T10:20:31.131Z,17.10
2018-04-15T10:22:58.636Z,16.90
2018-04-15T10:25:26.125Z,16.90
2018-04-15T10:27:53.603Z,17.20
2018-04-15T10:30:21.122Z,17.60
2018-04-15T10:32:48.626Z,18.20
2018-04-15T10:35:16.143Z,18.30
2018-04-15T10:37:43.611Z,18.30
2018-04-15T10:40:11.117Z,18.00
2018-04-15T10:42:38.630Z,17.90
2018-04-15T10:45:06.141Z,18.40
2018-04-15T10:47:34.400Z,18.70
2018-04-15T10:50:01.902Z,18.70
2018-04-15T10:52:29.402Z,18.70
2018-04-15T10:54:56.933Z,18.80
2018-04-15T10:57:24.417Z,18.90
2018-04-15T10:59:51.951Z,19.00
2018-04-15T11:02:20.176Z,18.60
2018-04-15T11:04:48.450Z,18.40
2018-04-15T11:07:16.739Z,18.50
2018-04-15T11:09:44.230Z,18.50
2018-04-15T11:12:11.730Z,18.90
2018-04-15T11:14:39.345Z,19.00
2018-04-15T11:17:07.111Z,19.20
2018-04-15T11:19:34.604Z,19.20
2018-04-15T11:22:02.680Z,19.30
2018-04-15T11:24:30.167Z,19.70
2018-04-15T11:26:57.676Z,19.70
2018-04-15T11:29:25.224Z,19.80
2018-04-15T11:31:52.714Z,20.00
2018-04-15T11:34:20.206Z,20.00
2018-04-15T11:36:47.710Z,19.00
2018-04-15T11:39:15.208Z,20.40
2018-04-15T11:41:42.694Z,19.90
2018-04-15T11:44:10.225Z,19.70
2018-04-15T11:46:38.455Z,20.00
2018-04-15T11:49:06.691Z,20.20
2018-04-15T11:51:34.239Z,20.20
2018-04-15T11:54:01.677Z,20.40
2018-04-15T11:56:29.184Z,20.40
2018-04-15T11:58:56.683Z,20.50
2018-04-15T12:01:24.154Z,20.80
2018-04-15T12:03:51.648Z,21.10
2018-04-15T12:06:19.115Z,21.20
2018-04-15T12:08:46.602Z,20.70
2018-04-15T12:11:14.074Z,20.00
2018-04-15T12:13:41.551Z,19.50
2018-04-15T12:16:09.800Z,19.70
2018-04-15T12:18:37.267Z,19.60
2018-04-15T12:21:04.742Z,19.60
2018-04-15T12:23:32.994Z,19.70
2018-04-15T12:26:00.484Z,19.70
2018-04-15T12:28:28.954Z,20.00
2018-04-15T12:30:57.197Z,20.00
2018-04-15T12:33:24.674Z,20.00
2018-04-15T12:35:52.189Z,20.00
2018-04-15T12:38:20.416Z,20.40
2018-04-15T12:40:48.658Z,20.90
2018-04-15T12:43:16.147Z,20.90
2018-04-15T12:45:43.668Z,21.10
2018-04-15T12:48:11.149Z,21.20
2018-04-15T12:50:38.648Z,21.40
2018-04-15T12:53:06.122Z,22.20
2018-04-15T12:55:33.597Z,22.80
2018-04-15T12:58:01.096Z,23.20
2018-04-15T13:00:28.577Z,23.10
2018-04-15T13:02:56.054Z,23.60
2018-04-15T13:05:23.563Z,24.10
2018-04-15T13:07:51.803Z,25.50
2018-04-15T13:10:19.302Z,25.50
2018-04-15T13:12:47.571Z,25.10
2018-04-15T13:15:15.032Z,25.00
2018-04-15T13:17:43.406Z,22.80
2018-04-15T13:20:11.676Z,22.30
2018-04-15T13:22:39.156Z,22.30
2018-04-15T13:25:07.448Z,22.50
2018-04-15T13:27:34.965Z,22.40
2018-04-15T13:30:02.472Z,23.10
2018-04-15T13:32:29.994Z,23.60
2018-04-15T13:34:58.237Z,24.00
2018-04-15T13:37:25.829Z,23.90
2018-04-15T13:39:54.077Z,24.10
2018-04-15T13:42:21.581Z,24.10
2018-04-15T13:44:49.810Z,25.30
2018-04-15T13:47:17.301Z,25.30
2018-04-15T13:49:45.573Z,24.50
2018-04-15T13:52:13.823Z,25.40
2018-04-15T13:54:41.332Z,25.40
2018-04-15T13:57:08.806Z,26.70
2018-04-15T13:59:36.274Z,26.20
2018-04-15T14:02:03.800Z,24.90
2018-04-15T14:04:31.290Z,25.10
2018-04-15T14:06:58.794Z,25.00
2018-04-15T14:09:26.253Z,24.90
2018-04-15T14:11:54.569Z,24.00
2018-04-15T14:14:22.038Z,24.00
2018-04-15T14:16:49.538Z,22.80
2018-04-15T14:19:17.019Z,21.80
2018-04-15T14:21:45.277Z,20.00
2018-04-15T14:24:14.048Z,19.60
2018-04-15T14:26:41.528Z,19.60
2018-04-15T14:29:09.779Z,19.90
2018-04-15T14:31:37.280Z,19.90
2018-04-15T14:34:04.789Z,20.60
2018-04-15T14:36:32.254Z,20.90
2018-04-15T14:38:59.757Z,20.70
2018-04-15T14:41:27.227Z,20.50
2018-04-15T14:43:54.718Z,20.20
2018-04-15T14:46:22.205Z,19.80
2018-04-15T14:48:50.453Z,20.60
2018-04-15T14:51:17.972Z,20.60
2018-04-15T14:53:45.472Z,21.90
2018-04-15T14:56:12.996Z,22.10
2018-04-15T14:58:40.478Z,21.80
2018-04-15T15:01:07.972Z,21.50
2018-04-15T15:03:36.215Z,20.10
2018-04-15T15:06:03.692Z,20.20
2018-04-15T15:08:31.181Z,20.10
2018-04-15T15:10:58.666Z,20.20
2018-04-15T15:13:26.177Z,20.20
2018-04-15T15:15:53.656Z,20.10
2018-04-15T15:18:21.123Z,19.90
2018-04-15T15:20:48.623Z,19.90
2018-04-15T15:23:16.088Z,19.50
2018-04-15T15:25:43.565Z,19.30
2018-04-15T15:28:11.070Z,19.90
2018-04-15T15:30:38.565Z,20.90
2018-04-15T15:33:06.077Z,21.50
2018-04-15T15:35:33.875Z,22.00
2018-04-15T15:38:01.477Z,21.80
2018-04-15T15:40:28.974Z,22.20
2018-04-15T15:42:56.454Z,22.10
2018-04-15T15:45:23.957Z,21.90
2018-04-15T15:47:51.434Z,21.40
2018-04-15T15:50:18.928Z,20.80
2018-04-15T15:52:46.434Z,20.60
2018-04-15T15:55:13.900Z,20.50
2018-04-15T15:57:41.437Z,20.30
2018-04-15T16:00:09.778Z,20.20
2018-04-15T16:02:37.253Z,19.90
2018-04-15T16:05:05.517Z,19.60
2018-04-15T16:07:33.037Z,19.60
2018-04-15T16:10:00.523Z,19.40
2018-04-15T16:12:27.994Z,19.40
2018-04-15T16:14:55.524Z,19.10
2018-04-15T16:17:23.047Z,18.90
2018-04-15T16:19:50.534Z,18.80
2018-04-15T16:22:18.035Z,18.80
2018-04-15T16:24:46.287Z,18.90
2018-04-15T16:27:13.761Z,18.80
2018-04-15T16:29:41.246Z,18.80
2018-04-15T16:32:08.738Z,18.50
2018-04-15T16:34:36.265Z,18.60
2018-04-15T16:37:03.770Z,18.60
2018-04-15T16:39:31.240Z,18.80
2018-04-15T16:41:58.715Z,18.80
2018-04-15T16:44:26.964Z,18.70
2018-04-15T16:46:54.433Z,18.70
2018-04-15T16:49:21.964Z,18.70
2018-04-15T16:51:49.463Z,18.60
2018-04-15T16:54:16.937Z,18.40
2018-04-15T16:56:45.208Z,18.00
2018-04-15T16:59:13.441Z,18.00
2018-04-15T17:01:40.966Z,18.00
2018-04-15T17:04:08.440Z,17.90
2018-04-15T17:06:35.917Z,17.80
2018-04-15T17:09:03.442Z,17.90
2018-04-15T17:11:30.936Z,17.70
2018-04-15T17:13:58.461Z,17.70
2018-04-15T17:16:25.996Z,17.60
2018-04-15T17:18:53.518Z,17.50
2018-04-15T17:21:21.041Z,17.50
2018-04-15T17:23:48.533Z,17.40
2018-04-15T17:26:16.038Z,17.40
2018-04-15T17:28:43.546Z,17.30
2018-04-15T17:31:11.043Z,17.30
2018-04-15T17:33:38.555Z,17.30
2018-04-15T17:36:06.010Z,17.20
2018-04-15T17:38:33.514Z,17.20
2018-04-15T17:41:01.775Z,17.20
2018-04-15T17:43:29.266Z,17.20
2018-04-15T17:45:56.829Z,17.10
2018-04-15T17:48:24.274Z,17.10
2018-04-15T17:50:51.762Z,16.90
2018-04-15T17:53:19.271Z,16.90
2018-04-15T17:55:46.758Z,16.90
2018-04-15T17:58:14.254Z,16.60
2018-04-15T18:00:41.742Z,16.60
2018-04-15T18:03:09.248Z,16.60
2018-04-15T18:05:36.759Z,16.50
2018-04-15T18:08:05.002Z,16.20
2018-04-15T18:10:32.540Z,16.20
2018-04-15T18:13:00.022Z,16.10
2018-04-15T18:15:27.557Z,16.00
2018-04-15T18:17:54.982Z,15.90
2018-04-15T18:20:22.492Z,15.90
2018-04-15T18:22:49.998Z,15.80
2018-04-15T18:25:17.488Z,15.80
2018-04-15T18:27:45.044Z,15.70
2018-04-15T18:30:12.539Z,15.70
2018-04-15T18:32:40.088Z,15.70
2018-04-15T18:35:07.603Z,15.60
2018-04-15T18:37:35.119Z,15.50
2018-04-15T18:40:03.400Z,15.50
2018-04-15T18:42:31.656Z,15.40
2018-04-15T18:44:59.124Z,15.40
2018-04-15T18:47:26.652Z,15.30
2018-04-15T18:49:54.155Z,15.40
2018-04-15T18:52:21.671Z,15.40
2018-04-15T18:54:49.196Z,15.30
2018-04-15T18:57:16.719Z,15.30
2018-04-15T18:59:44.286Z,15.20
2018-04-15T19:02:12.648Z,15.20
2018-04-15T19:04:40.188Z,15.10
2018-04-15T19:07:07.690Z,15.20
2018-04-15T19:09:35.237Z,15.20
2018-04-15T19:12:03.506Z,15.20
2018-04-15T19:14:31.780Z,15.10
2018-04-15T19:16:59.303Z,15.10
2018-04-15T19:19:26.845Z,15.10
2018-04-15T19:21:54.319Z,14.90
2018-04-15T19:24:21.809Z,14.80
2018-04-15T19:26:49.904Z,14.70
2018-04-15T19:29:17.576Z,14.40
2018-04-15T19:31:45.863Z,14.10
2018-04-15T19:34:13.459Z,14.00
2018-04-15T19:36:41.001Z,14.00
2018-04-15T19:39:08.471Z,13.90
2018-04-15T19:41:36.010Z,13.70
2018-04-15T19:44:03.487Z,13.60
2018-04-15T19:46:31.000Z,13.40
2018-04-15T19:48:58.586Z,13.30
2018-04-15T19:51:26.054Z,13.10
2018-04-15T19:53:53.553Z,13.00
2018-04-15T19:56:21.818Z,12.80
2018-04-15T19:58:49.302Z,12.80
2018-04-15T20:01:17.569Z,12.80
2018-04-15T20:03:45.042Z,12.80
2018-04-15T20:06:13.299Z,12.90
2018-04-15T20:08:41.608Z,12.80
2018-04-15T20:11:09.149Z,12.80
2018-04-15T20:13:36.637Z,12.80
2018-04-15T20:16:04.133Z,12.80
2018-04-15T20:18:31.612Z,12.80
2018-04-15T20:20:59.155Z,12.80
2018-04-15T20:23:26.649Z,12.70
2018-04-15T20:25:54.926Z,12.60
2018-04-15T20:28:22.410Z,12.60
2018-04-15T20:30:49.911Z,12.50
2018-04-15T20:33:17.404Z,12.40
2018-04-15T20:35:44.877Z,12.30
2018-04-15T20:38:12.396Z,12.20
2018-04-15T20:40:40.652Z,12.10
2018-04-15T20:43:08.138Z,12.10
2018-04-15T20:45:36.425Z,12.00
2018-04-15T20:48:03.900Z,12.00
2018-04-15T20:50:31.391Z,12.00
2018-04-15T20:52:58.887Z,12.00
2018-04-15T20:55:26.355Z,12.10
2018-04-15T20:57:53.851Z,12.10
2018-04-15T21:00:21.322Z,12.10
2018-04-15T21:02:48.831Z,12.10
2018-04-15T21:05:16.289Z,12.00
2018-04-15T21:07:43.770Z,12.10
2018-04-15T21:10:11.253Z,12.00
2018-04-15T21:12:38.712Z,12.00
2018-04-15T21:15:06.189Z,12.00
2018-04-15T21:17:33.665Z,11.90
2018-04-15T21:20:01.138Z,11.80
2018-04-15T21:22:28.628Z,11.70
2018-04-15T21:24:56.102Z,11.80
2018-04-15T21:27:23.589Z,11.90
2018-04-15T21:29:51.848Z,11.90
2018-04-15T21:32:19.332Z,12.00
2018-04-15T21:34:46.825Z,11.80
2018-04-15T21:37:14.308Z,11.80
2018-04-15T21:39:41.792Z,11.90
2018-04-15T21:42:10.038Z,11.90
2018-04-15T21:44:37.522Z,11.90
2018-04-15T21:47:05.009Z,11.80
2018-04-15T21:49:32.495Z,11.80
2018-04-15T21:52:00.002Z,11.70
2018-04-15T21:54:28.270Z,11.70
2018-04-15T21:56:56.515Z,11.60
2018-04-15T21:59:24.015Z,11.60
2018-04-15T22:01:51.495Z,11.60
2018-04-15T22:04:18.989Z,11.60
2018-04-15T22:06:46.446Z,11.60
2018-04-15T22:09:13.931Z,11.70
2018-04-15T22:11:54.040Z,11.50
2018-04-15T22:14:21.517Z,11.40
2018-04-15T22:16:49.032Z,11.50
2018-04-15T22:19:16.887Z,11.40
2018-04-15T22:21:44.377Z,11.30
2018-04-15T22:24:11.889Z,11.30
2018-04-15T22:26:40.122Z,11.30
2018-04-15T22:29:07.593Z,11.20
2018-04-15T22:31:35.074Z,11.30
2018-04-15T22:34:03.303Z,11.10
2018-04-15T22:36:30.799Z,11.10
2018-04-15T22:38:58.276Z,11.00
2018-04-15T22:41:25.793Z,10.80
2018-04-15T22:43:53.259Z,10.70
2018-04-15T22:46:20.742Z,10.60
2018-04-15T22:48:48.988Z,10.50
2018-04-15T22:51:16.436Z,10.50
2018-04-15T22:53:43.942Z,10.50
2018-04-15T22:56:11.407Z,10.50
2018-04-15T22:58:44.449Z,10.60
2018-04-15T23:01:11.928Z,10.50
2018-04-15T23:03:40.165Z,10.40
2018-04-15T23:06:07.653Z,10.40
2018-04-15T23:08:35.114Z,10.40
2018-04-15T23:11:02.591Z,10.40
2018-04-15T23:13:30.069Z,10.30
2018-04-15T23:15:59.477Z,10.20
2018-04-15T23:18:26.979Z,10.10
2018-04-15T23:20:54.469Z,10.00
2018-04-15T23:23:21.952Z,9.90
2018-04-15T23:25:49.412Z,9.90
2018-04-15T23:28:16.864Z,9.90
2018-04-15T23:30:44.366Z,10.10
2018-04-15T23:33:11.818Z,10.00
2018-04-15T23:35:39.308Z,9.80
2018-04-15T23:38:06.762Z,9.90
2018-04-15T23:40:34.273Z,9.90
2018-04-15T23:43:01.749Z,10.00
2018-04-15T23:45:29.215Z,10.00
2018-04-15T23:47:56.689Z,9.90
2018-04-15T23:50:24.925Z,9.90
2018-04-15T23:52:52.400Z,9.90
2018-04-15T23:55:19.893Z,9.90
2018-04-15T23:57:47.348Z,9.90
